createdAt,value
2018-07-13T00:01:37.295Z,99.90
2018-07-13T00:04:05.630Z,99.90
2018-07-13T00:06:33.899Z,99.90
2018-07-13T00:09:02.121Z,99.90
2018-07-13T00:11:30.374Z,99.90
2018-07-13T00:16:26.480Z,99.90
2018-07-13T00:18:54.716Z,99.90
2018-07-13T00:21:22.862Z,99.90
2018-07-13T00:23:51.114Z,99.90
2018-07-13T00:26:19.290Z,99.90
2018-07-13T00:28:47.543Z,99.90
2018-07-13T00:31:15.843Z,99.90
2018-07-13T00:33:44.109Z,99.90
2018-07-13T00:36:12.276Z,99.90
2018-07-13T00:38:40.495Z,99.90
2018-07-13T00:41:08.841Z,99.90
2018-07-13T00:43:37.090Z,99.90
2018-07-13T00:46:05.370Z,99.90
2018-07-13T00:48:33.648Z,99.90
2018-07-13T00:51:01.871Z,99.90
2018-07-13T00:53:30.207Z,99.90
2018-07-13T00:55:58.554Z,99.90
2018-07-13T00:58:26.854Z,99.90
2018-07-13T01:00:55.133Z,99.90
2018-07-13T01:03:23.328Z,99.90
2018-07-13T01:05:51.508Z,99.90
2018-07-13T01:08:19.655Z,99.90
2018-07-13T01:10:48.110Z,99.90
2018-07-13T01:13:16.359Z,99.90
2018-07-13T01:15:44.858Z,99.90
2018-07-13T01:18:13.471Z,99.90
2018-07-13T01:20:41.662Z,99.90
2018-07-13T01:23:09.861Z,99.90
2018-07-13T01:25:38.201Z,99.90
2018-07-13T01:28:06.790Z,99.90
2018-07-13T01:30:35.235Z,99.90
2018-07-13T01:33:03.860Z,99.90
2018-07-13T01:35:32.124Z,99.90
2018-07-13T01:38:00.366Z,99.90
2018-07-13T01:40:28.677Z,99.90
2018-07-13T01:42:56.969Z,99.90
2018-07-13T01:45:25.150Z,99.90
2018-07-13T01:47:53.349Z,99.90
2018-07-13T01:50:21.555Z,99.90
2018-07-13T01:52:49.754Z,99.90
2018-07-13T01:55:17.918Z,99.90
2018-07-13T01:57:46.113Z,99.90
2018-07-13T02:00:14.278Z,99.90
2018-07-13T02:02:42.643Z,99.90
2018-07-13T02:05:10.917Z,99.90
2018-07-13T02:07:39.389Z,99.90
2018-07-13T02:10:07.690Z,99.90
2018-07-13T02:12:35.827Z,99.90
2018-07-13T02:15:04.410Z,99.90
2018-07-13T02:17:32.578Z,99.90
2018-07-13T02:20:00.764Z,99.90
2018-07-13T02:22:29.099Z,99.90
2018-07-13T02:24:57.331Z,99.90
2018-07-13T02:27:25.644Z,99.90
2018-07-13T02:29:53.960Z,99.90
2018-07-13T02:32:22.130Z,99.90
2018-07-13T02:34:50.305Z,99.90
2018-07-13T02:37:18.596Z,99.90
2018-07-13T02:39:46.954Z,99.90
2018-07-13T02:42:15.155Z,99.90
2018-07-13T02:44:43.367Z,99.90
2018-07-13T02:47:11.574Z,99.90
2018-07-13T02:49:39.803Z,99.90
2018-07-13T02:52:08.048Z,99.90
2018-07-13T02:54:36.404Z,99.90
2018-07-13T02:57:04.927Z,99.90
2018-07-13T02:59:33.241Z,99.90
2018-07-13T03:02:01.444Z,99.90
2018-07-13T03:04:29.708Z,99.90
2018-07-13T03:06:58.055Z,99.90
2018-07-13T03:09:26.395Z,99.90
2018-07-13T03:11:54.614Z,99.90
2018-07-13T03:14:22.874Z,99.90
2018-07-13T03:16:51.076Z,99.90
2018-07-13T03:19:19.421Z,99.90
2018-07-13T03:21:47.666Z,99.90
2018-07-13T03:24:16.042Z,99.90
2018-07-13T03:26:44.361Z,99.90
2018-07-13T03:31:40.361Z,99.90
2018-07-13T03:34:08.629Z,99.90
2018-07-13T03:36:36.955Z,99.90
2018-07-13T03:39:05.558Z,99.90
2018-07-13T03:41:33.772Z,99.90
2018-07-13T03:44:02.169Z,99.90
2018-07-13T03:46:30.425Z,99.90
2018-07-13T03:48:58.657Z,99.90
2018-07-13T03:51:26.868Z,99.90
2018-07-13T03:53:55.031Z,99.90
2018-07-13T03:56:23.216Z,99.90
2018-07-13T03:58:51.478Z,99.90
2018-07-13T04:01:19.748Z,99.90
2018-07-13T04:03:47.970Z,99.90
2018-07-13T04:06:16.275Z,99.90
2018-07-13T04:08:44.478Z,99.90
2018-07-13T04:11:12.649Z,99.90
2018-07-13T04:13:41.052Z,99.90
2018-07-13T04:16:09.461Z,99.90
2018-07-13T04:18:37.790Z,99.90
2018-07-13T04:21:06.242Z,99.90
2018-07-13T04:23:34.508Z,99.90
2018-07-13T04:26:02.840Z,99.90
2018-07-13T04:28:31.894Z,99.90
2018-07-13T04:31:00.136Z,99.90
2018-07-13T04:33:28.323Z,99.90
2018-07-13T04:35:56.584Z,99.90
2018-07-13T04:38:24.868Z,99.90
2018-07-13T04:40:53.119Z,99.90
2018-07-13T04:43:21.396Z,99.90
2018-07-13T04:45:49.815Z,99.90
2018-07-13T04:48:18.142Z,99.90
2018-07-13T04:50:46.437Z,99.90
2018-07-13T04:53:14.686Z,99.90
2018-07-13T04:55:42.902Z,99.90
2018-07-13T04:58:11.243Z,99.90
2018-07-13T05:00:39.592Z,99.90
2018-07-13T05:03:07.826Z,99.90
2018-07-13T05:05:36.180Z,99.90
2018-07-13T05:08:04.601Z,99.90
2018-07-13T05:10:32.841Z,99.90
2018-07-13T05:13:01.117Z,99.90
2018-07-13T05:15:29.559Z,99.90
2018-07-13T05:17:57.779Z,99.90
2018-07-13T05:20:26.093Z,99.90
2018-07-13T05:22:54.310Z,99.90
2018-07-13T05:25:22.577Z,99.90
2018-07-13T05:27:50.828Z,99.90
2018-07-13T05:30:19.154Z,99.90
2018-07-13T05:32:47.659Z,99.90
2018-07-13T05:35:15.899Z,99.90
2018-07-13T05:37:44.086Z,99.90
2018-07-13T05:40:12.374Z,99.90
2018-07-13T05:42:40.639Z,99.90
2018-07-13T05:45:09.009Z,99.90
2018-07-13T05:47:37.366Z,99.90
2018-07-13T05:50:05.630Z,99.90
2018-07-13T05:52:33.938Z,99.90
2018-07-13T05:55:02.191Z,99.90
2018-07-13T05:57:30.485Z,99.90
2018-07-13T05:59:58.832Z,99.90
2018-07-13T06:02:27.056Z,99.90
2018-07-13T06:04:55.309Z,99.90
2018-07-13T06:07:23.647Z,99.90
2018-07-13T06:09:51.996Z,99.90
2018-07-13T06:12:20.458Z,99.90
2018-07-13T06:14:48.862Z,99.90
2018-07-13T06:17:17.148Z,99.90
2018-07-13T06:19:45.362Z,99.90
2018-07-13T06:22:13.559Z,99.90
2018-07-13T06:24:41.755Z,99.90
2018-07-13T06:27:09.995Z,99.90
2018-07-13T06:29:38.231Z,99.90
2018-07-13T06:32:06.574Z,99.90
2018-07-13T06:34:34.742Z,99.90
2018-07-13T06:37:03.103Z,99.90
2018-07-13T06:39:31.334Z,99.90
2018-07-13T06:41:59.868Z,99.90
2018-07-13T06:44:28.119Z,99.90
2018-07-13T06:46:56.519Z,99.90
2018-07-13T06:49:24.727Z,99.90
2018-07-13T06:51:53.088Z,99.90
2018-07-13T06:54:21.261Z,99.90
2018-07-13T06:56:49.678Z,99.90
2018-07-13T06:59:19.120Z,99.90
2018-07-13T07:01:47.707Z,99.90
2018-07-13T07:04:18.867Z,99.90
2018-07-13T07:06:47.091Z,99.90
2018-07-13T07:09:15.388Z,99.90
2018-07-13T07:11:49.527Z,99.90
2018-07-13T07:14:17.800Z,99.90
2018-07-13T07:16:46.015Z,99.90
2018-07-13T07:19:14.191Z,99.90
2018-07-13T07:21:42.503Z,99.90
2018-07-13T07:24:10.700Z,99.90
2018-07-13T07:26:38.930Z,99.90
2018-07-13T07:29:07.132Z,99.90
2018-07-13T07:31:35.367Z,99.90
2018-07-13T07:34:03.553Z,99.90
2018-07-13T07:36:31.842Z,99.90
2018-07-13T07:39:00.242Z,99.90
2018-07-13T07:41:28.517Z,99.90
2018-07-13T07:43:56.845Z,99.90
2018-07-13T07:46:25.238Z,99.90
2018-07-13T07:48:53.555Z,99.90
2018-07-13T07:51:21.844Z,99.90
2018-07-13T07:53:50.243Z,99.90
2018-07-13T07:56:18.417Z,99.90
2018-07-13T07:58:46.647Z,99.90
2018-07-13T08:01:14.928Z,99.90
2018-07-13T08:03:43.165Z,99.90
2018-07-13T08:06:11.461Z,99.90
2018-07-13T08:08:39.662Z,99.90
2018-07-13T08:11:07.850Z,99.90
2018-07-13T08:13:36.115Z,99.90
2018-07-13T08:16:04.338Z,99.90
2018-07-13T08:18:32.721Z,99.90
2018-07-13T08:21:01.141Z,99.90
2018-07-13T08:23:29.847Z,99.90
2018-07-13T08:25:58.239Z,99.90
2018-07-13T08:30:57.012Z,99.90
2018-07-13T08:33:25.301Z,99.90
2018-07-13T08:35:53.503Z,99.90
2018-07-13T08:38:21.839Z,99.90
2018-07-13T08:40:50.067Z,99.90
2018-07-13T08:43:18.302Z,99.90
2018-07-13T08:45:46.973Z,99.90
2018-07-13T08:48:15.151Z,99.90
2018-07-13T08:50:43.401Z,99.90
2018-07-13T08:53:11.902Z,99.90
2018-07-13T08:55:40.181Z,99.90
2018-07-13T08:58:08.669Z,99.90
2018-07-13T09:00:36.940Z,99.90
2018-07-13T09:03:05.416Z,99.90
2018-07-13T09:05:33.723Z,99.90
2018-07-13T09:08:01.975Z,99.90
2018-07-13T09:10:30.331Z,99.90
2018-07-13T09:12:58.658Z,99.90
2018-07-13T09:15:27.010Z,99.90
2018-07-13T09:17:55.238Z,99.90
2018-07-13T09:20:23.630Z,99.90
2018-07-13T09:22:51.825Z,99.90
2018-07-13T09:25:20.207Z,99.90
2018-07-13T09:27:48.615Z,99.90
2018-07-13T09:30:16.961Z,99.90
2018-07-13T09:32:45.337Z,99.90
2018-07-13T09:35:13.615Z,99.90
2018-07-13T09:37:41.910Z,99.90
2018-07-13T09:40:10.173Z,99.90
2018-07-13T09:42:38.445Z,99.90
2018-07-13T09:45:06.803Z,99.90
2018-07-13T09:47:35.982Z,99.90
2018-07-13T09:50:04.372Z,99.90
2018-07-13T09:52:32.659Z,99.90
2018-07-13T09:55:00.925Z,99.90
2018-07-13T09:57:29.320Z,99.90
2018-07-13T09:59:57.532Z,99.90
2018-07-13T10:02:25.949Z,99.90
2018-07-13T10:04:54.366Z,99.90
2018-07-13T10:07:22.623Z,99.90
2018-07-13T10:09:50.876Z,99.90
2018-07-13T10:12:19.190Z,99.90
2018-07-13T10:14:47.486Z,99.90
2018-07-13T10:17:16.015Z,99.90
2018-07-13T10:19:44.421Z,99.90
2018-07-13T10:22:13.586Z,99.90
2018-07-13T10:24:42.210Z,99.90
2018-07-13T10:27:10.571Z,99.90
2018-07-13T10:29:40.676Z,99.90
2018-07-13T10:32:09.067Z,99.90
2018-07-13T10:34:37.354Z,99.90
2018-07-13T10:37:05.855Z,99.90
2018-07-13T10:39:34.440Z,99.90
2018-07-13T10:42:02.832Z,99.90
2018-07-13T10:44:33.606Z,99.90
2018-07-13T10:47:01.886Z,99.90
2018-07-13T10:49:30.251Z,99.90
2018-07-13T10:51:58.542Z,99.90
2018-07-13T10:54:27.306Z,99.90
2018-07-13T10:56:55.660Z,99.90
2018-07-13T10:59:23.747Z,99.90
2018-07-13T11:01:52.183Z,99.90
2018-07-13T11:04:20.752Z,99.90
2018-07-13T11:06:49.153Z,99.90
2018-07-13T11:09:17.563Z,99.90
2018-07-13T11:11:45.755Z,99.90
2018-07-13T11:14:14.209Z,99.90
2018-07-13T11:16:42.648Z,99.90
2018-07-13T11:19:10.945Z,99.90
2018-07-13T11:21:39.394Z,99.90
2018-07-13T11:24:07.661Z,99.90
2018-07-13T11:26:35.970Z,99.90
2018-07-13T11:29:04.237Z,99.90
2018-07-13T11:31:32.610Z,99.90
2018-07-13T11:34:00.836Z,99.90
2018-07-13T11:36:29.033Z,99.90
2018-07-13T11:38:57.355Z,99.90
2018-07-13T11:41:25.916Z,99.90
2018-07-13T11:43:54.298Z,99.90
2018-07-13T11:46:22.566Z,99.90
2018-07-13T11:48:50.869Z,99.90
2018-07-13T11:51:19.082Z,99.90
2018-07-13T11:53:47.275Z,99.90
2018-07-13T11:56:15.862Z,99.90
2018-07-13T11:58:44.247Z,99.90
2018-07-13T12:03:40.524Z,99.90
2018-07-13T12:06:08.915Z,99.90
2018-07-13T12:08:37.279Z,99.90
2018-07-13T12:11:06.379Z,99.90
2018-07-13T12:13:34.686Z,99.90
2018-07-13T12:16:03.027Z,99.90
2018-07-13T12:18:31.229Z,99.90
2018-07-13T12:20:59.572Z,99.90
2018-07-13T12:23:27.952Z,99.90
2018-07-13T12:25:56.187Z,99.90
2018-07-13T12:28:24.858Z,99.90
2018-07-13T12:30:53.193Z,99.90
2018-07-13T12:33:21.538Z,99.90
2018-07-13T12:35:49.771Z,99.90
2018-07-13T12:38:18.116Z,99.90
2018-07-13T12:40:46.534Z,99.90
2018-07-13T12:43:14.875Z,99.90
2018-07-13T12:45:43.130Z,99.90
2018-07-13T12:48:11.375Z,99.90
2018-07-13T12:50:39.762Z,99.90
2018-07-13T12:53:08.044Z,99.90
2018-07-13T12:55:36.267Z,99.90
2018-07-13T12:58:04.615Z,99.90
2018-07-13T13:00:33.005Z,99.90
2018-07-13T13:03:01.275Z,99.90
2018-07-13T13:05:29.688Z,99.90
2018-07-13T13:07:57.828Z,99.90
2018-07-13T13:10:26.186Z,99.90
2018-07-13T13:12:54.593Z,99.90
2018-07-13T13:15:22.840Z,99.90
2018-07-13T13:17:51.132Z,99.90
2018-07-13T13:20:19.371Z,99.90
2018-07-13T13:22:47.890Z,99.90
2018-07-13T13:25:16.163Z,99.90
2018-07-13T13:27:44.696Z,99.90
2018-07-13T13:30:13.127Z,99.90
2018-07-13T13:32:41.394Z,99.90
2018-07-13T13:35:09.670Z,99.90
2018-07-13T13:37:38.024Z,99.90
2018-07-13T13:40:06.604Z,99.90
2018-07-13T13:42:35.019Z,99.90
2018-07-13T13:45:03.288Z,99.90
2018-07-13T13:47:32.609Z,99.90
2018-07-13T13:50:00.858Z,99.90
2018-07-13T13:52:29.492Z,99.90
2018-07-13T13:54:57.938Z,99.90
2018-07-13T13:57:26.520Z,99.90
2018-07-13T13:59:54.754Z,99.90
2018-07-13T14:04:50.758Z,99.90
2018-07-13T14:07:19.040Z,99.90
2018-07-13T14:09:47.383Z,99.90
2018-07-13T14:12:15.761Z,99.90
2018-07-13T14:14:44.302Z,99.90
2018-07-13T14:17:12.660Z,99.90
2018-07-13T14:19:41.091Z,99.90
2018-07-13T14:22:09.321Z,99.90
2018-07-13T14:24:37.790Z,99.90
2018-07-13T14:27:06.054Z,99.90
2018-07-13T14:29:35.103Z,99.90
2018-07-13T14:32:10.034Z,99.90
2018-07-13T14:34:38.455Z,99.90
2018-07-13T14:37:06.839Z,99.90
2018-07-13T14:39:35.101Z,99.90
2018-07-13T14:42:03.598Z,99.90
2018-07-13T14:44:31.931Z,99.90
2018-07-13T14:47:00.522Z,99.90
2018-07-13T14:49:28.624Z,99.90
2018-07-13T14:51:56.927Z,99.90
2018-07-13T14:54:25.243Z,99.90
2018-07-13T14:56:53.670Z,99.90
2018-07-13T14:59:22.207Z,99.90
2018-07-13T15:01:50.505Z,99.90
2018-07-13T15:04:18.884Z,99.90
2018-07-13T15:06:47.393Z,99.90
2018-07-13T15:09:15.857Z,99.90
2018-07-13T15:11:44.284Z,99.90
2018-07-13T15:14:12.767Z,99.90
2018-07-13T15:16:41.182Z,99.90
2018-07-13T15:19:09.430Z,99.90
2018-07-13T15:21:37.641Z,99.60
2018-07-13T15:24:06.046Z,99.80
2018-07-13T15:26:34.271Z,99.90
2018-07-13T15:29:02.603Z,99.90
2018-07-13T15:31:30.839Z,99.90
2018-07-13T15:33:59.328Z,99.90
2018-07-13T15:36:27.595Z,99.90
2018-07-13T15:38:55.879Z,99.90
2018-07-13T15:41:24.064Z,99.90
2018-07-13T15:43:52.477Z,99.90
2018-07-13T15:46:20.908Z,99.90
2018-07-13T15:48:49.204Z,99.90
2018-07-13T15:51:17.552Z,99.90
2018-07-13T15:53:45.834Z,99.90
2018-07-13T15:56:14.507Z,99.90
2018-07-13T15:58:42.973Z,99.90
2018-07-13T16:01:12.201Z,99.40
2018-07-13T16:03:40.528Z,99.60
2018-07-13T16:06:09.058Z,99.70
2018-07-13T16:08:37.566Z,99.80
2018-07-13T16:13:33.624Z,99.60
2018-07-13T16:16:01.883Z,99.60
2018-07-13T16:18:30.103Z,99.60
2018-07-13T16:20:58.339Z,99.10
2018-07-13T16:23:26.936Z,98.20
2018-07-13T16:25:55.264Z,98.30
2018-07-13T16:28:23.565Z,98.30
2018-07-13T16:30:51.698Z,98.50
2018-07-13T16:33:20.043Z,98.30
2018-07-13T16:35:48.362Z,98.90
2018-07-13T16:40:44.574Z,98.30
2018-07-13T16:43:12.847Z,98.20
2018-07-13T16:45:41.151Z,98.50
2018-07-13T16:48:09.603Z,98.20
2018-07-13T16:50:38.127Z,98.90
2018-07-13T16:53:06.886Z,97.80
2018-07-13T16:55:35.252Z,97.80
2018-07-13T16:58:03.640Z,98.30
2018-07-13T17:00:31.994Z,98.40
2018-07-13T17:03:00.326Z,98.30
2018-07-13T17:05:28.753Z,98.60
2018-07-13T17:07:56.995Z,97.70
2018-07-13T17:10:25.368Z,97.60
2018-07-13T17:12:53.591Z,97.50
2018-07-13T17:15:21.976Z,97.30
2018-07-13T17:17:50.142Z,97.60
2018-07-13T17:20:18.761Z,98.20
2018-07-13T17:22:47.145Z,98.30
2018-07-13T17:25:15.451Z,97.90
2018-07-13T17:30:11.810Z,98.20
2018-07-13T17:32:40.029Z,99.40
2018-07-13T17:35:08.357Z,99.20
2018-07-13T17:40:04.661Z,97.30
2018-07-13T17:42:32.925Z,97.70
2018-07-13T17:45:01.272Z,97.90
2018-07-13T17:47:29.605Z,98.30
2018-07-13T17:49:58.039Z,97.90
2018-07-13T17:52:26.247Z,97.80
2018-07-13T17:54:54.721Z,97.60
2018-07-13T17:57:23.091Z,97.90
2018-07-13T17:59:51.438Z,98.10
2018-07-13T18:02:19.778Z,97.90
2018-07-13T18:04:48.006Z,99.00
2018-07-13T18:07:16.467Z,99.90
2018-07-13T18:09:44.862Z,99.60
2018-07-13T18:12:13.268Z,99.90
2018-07-13T18:14:41.555Z,99.90
2018-07-13T18:17:09.912Z,99.40
2018-07-13T18:19:38.235Z,99.30
2018-07-13T18:22:07.435Z,98.40
2018-07-13T18:24:35.841Z,98.70
2018-07-13T18:27:04.151Z,98.60
2018-07-13T18:29:32.440Z,98.50
2018-07-13T18:32:00.761Z,98.50
2018-07-13T18:34:29.105Z,99.00
2018-07-13T18:36:57.488Z,99.20
2018-07-13T18:39:25.965Z,99.90
2018-07-13T18:41:54.259Z,99.90
2018-07-13T18:44:22.641Z,99.70
2018-07-13T18:46:50.833Z,99.90
2018-07-13T18:49:19.168Z,99.90
2018-07-13T18:51:47.413Z,99.90
2018-07-13T18:54:15.648Z,99.90
2018-07-13T18:56:43.971Z,99.90
2018-07-13T18:59:12.436Z,99.90
2018-07-13T19:01:40.746Z,99.90
2018-07-13T19:04:09.083Z,99.90
2018-07-13T19:06:37.368Z,99.90
2018-07-13T19:09:06.455Z,99.90
2018-07-13T19:11:34.936Z,99.90
2018-07-13T19:14:03.217Z,99.90
2018-07-13T19:16:31.549Z,99.90
2018-07-13T19:21:27.705Z,99.90
2018-07-13T19:23:56.022Z,99.90
2018-07-13T19:26:24.284Z,99.90
2018-07-13T19:28:52.710Z,99.90
2018-07-13T19:31:21.189Z,99.90
2018-07-13T19:33:49.537Z,99.90
2018-07-13T19:36:17.928Z,99.90
2018-07-13T19:38:46.140Z,99.90
2018-07-13T19:41:14.429Z,99.90
2018-07-13T19:43:42.773Z,99.90
2018-07-13T19:46:11.128Z,99.90
2018-07-13T19:48:39.584Z,99.90
2018-07-13T19:51:07.894Z,99.90
2018-07-13T19:53:36.279Z,99.90
2018-07-13T19:56:04.584Z,99.90
2018-07-13T19:58:32.898Z,99.90
2018-07-13T20:01:01.106Z,99.90
2018-07-13T20:05:57.346Z,99.90
2018-07-13T20:08:25.594Z,99.90
2018-07-13T20:10:53.985Z,99.90
2018-07-13T20:13:22.215Z,99.90
2018-07-13T20:15:50.622Z,99.90
2018-07-13T20:18:19.188Z,99.90
2018-07-13T20:20:47.735Z,99.90
2018-07-13T20:23:16.106Z,99.90
2018-07-13T20:25:44.477Z,99.90
2018-07-13T20:28:12.844Z,99.90
2018-07-13T20:30:41.102Z,99.90
2018-07-13T20:33:09.621Z,99.90
2018-07-13T20:35:37.839Z,99.90
2018-07-13T20:38:06.138Z,99.90
2018-07-13T20:40:34.508Z,99.90
2018-07-13T20:43:02.795Z,99.90
2018-07-13T20:45:31.155Z,99.90
2018-07-13T20:47:59.679Z,99.90
2018-07-13T20:50:27.938Z,99.90
2018-07-13T20:52:56.268Z,99.90
2018-07-13T20:55:24.706Z,99.90
2018-07-13T20:57:53.013Z,99.90
2018-07-13T21:00:21.294Z,99.90
2018-07-13T21:02:49.950Z,99.90
2018-07-13T21:05:18.207Z,99.90
2018-07-13T21:07:46.583Z,99.90
2018-07-13T21:10:14.851Z,99.90
2018-07-13T21:15:10.909Z,99.90
2018-07-13T21:17:39.194Z,99.90
2018-07-13T21:20:07.559Z,99.90
2018-07-13T21:22:35.820Z,99.90
2018-07-13T21:25:04.282Z,99.90
2018-07-13T21:27:32.521Z,99.90
2018-07-13T21:30:00.701Z,99.90
2018-07-13T21:32:28.993Z,99.90
2018-07-13T21:34:57.320Z,99.90
2018-07-13T21:37:25.692Z,99.90
2018-07-13T21:39:53.884Z,99.90
2018-07-13T21:42:22.162Z,99.90
2018-07-13T21:44:50.455Z,99.90
2018-07-13T21:47:18.679Z,99.90
2018-07-13T21:49:47.058Z,99.90
2018-07-13T21:52:15.493Z,99.90
2018-07-13T21:54:43.852Z,99.90
2018-07-13T21:57:12.314Z,99.90
2018-07-13T21:59:40.612Z,99.90
2018-07-13T22:02:08.837Z,99.90
2018-07-13T22:04:37.144Z,99.90
2018-07-13T22:07:05.535Z,99.90
2018-07-13T22:09:33.819Z,99.90
2018-07-13T22:12:01.973Z,99.90
2018-07-13T22:14:30.442Z,99.90
2018-07-13T22:16:58.626Z,99.90
2018-07-13T22:19:26.914Z,99.90
2018-07-13T22:21:55.086Z,99.90
2018-07-13T22:24:23.322Z,99.90
2018-07-13T22:26:51.663Z,99.90
2018-07-13T22:29:20.126Z,99.90
2018-07-13T22:34:16.241Z,99.90
2018-07-13T22:36:44.591Z,99.90
2018-07-13T22:39:12.868Z,99.90
2018-07-13T22:41:41.181Z,99.90
2018-07-13T22:44:09.646Z,99.90
2018-07-13T22:46:38.016Z,99.90
2018-07-13T22:49:06.615Z,99.90
2018-07-13T22:51:34.969Z,99.90
2018-07-13T22:54:03.260Z,99.90
2018-07-13T22:56:31.632Z,99.90
2018-07-13T22:58:59.843Z,99.90
2018-07-13T23:01:28.220Z,99.90
2018-07-13T23:03:56.445Z,99.90
2018-07-13T23:06:24.638Z,99.90
2018-07-13T23:08:52.829Z,99.90
2018-07-13T23:11:21.163Z,99.90
2018-07-13T23:13:49.348Z,99.90
2018-07-13T23:16:17.612Z,99.90
2018-07-13T23:18:45.826Z,99.90
2018-07-13T23:21:14.078Z,99.90
2018-07-13T23:23:42.393Z,99.90
2018-07-13T23:26:10.530Z,99.90
2018-07-13T23:28:38.780Z,99.90
2018-07-13T23:31:07.023Z,99.90
2018-07-13T23:33:35.279Z,99.90
2018-07-13T23:36:03.647Z,99.90
2018-07-13T23:38:31.922Z,99.90
2018-07-13T23:41:00.371Z,99.90
2018-07-13T23:43:29.009Z,99.90
2018-07-13T23:45:57.250Z,99.90
2018-07-13T23:48:25.487Z,99.90
2018-07-13T23:50:53.881Z,99.90
2018-07-13T23:53:22.092Z,99.90
2018-07-13T23:55:50.411Z,99.90
2018-07-13T23:58:18.705Z,99.90
